Time;durP1;ratioP1;P1;durP2;ratioP2;P2;SDS_P1;SDS_P2;PMS_P1;PMS_P2;Temp;Humidity;BMP_temperature;BMP_pressure;BME280_temperature;BME280_humidity;BME280_pressure;Samples;Min_cycle;Max_cycle;Signal;HPM_P1;HPM_P2
2023/05/12 00:00:02;;;;;;;25.23;22.27;;;;;;;;;;506139;28;1455;-72
2023/05/12 00:00:21;;;;;;;23.77;21.30;;;;;;;;;;503987;28;1198;-72
2023/05/12 00:00:52;;;;;;;21.65;19.50;;;;;;;;;;504007;28;1297;-72
2023/05/12 00:01:19;;;;;;;24.40;21.80;;;;;;;;;;505611;28;954;-71
2023/05/12 00:01:37;;;;;;;24.02;21.48;;;;;;;;;;504472;28;1195;-72
2023/05/12 00:02:03;;;;;;;23.80;21.30;;;;;;;;;;502185;28;1195;-72
2023/05/12 00:02:19;;;;;;;24.17;21.13;;;;;;;;;;504065;28;1075;-72
2023/05/12 00:02:34;;;;;;;21.55;19.27;;;;;;;;;;504165;28;1314;-72
2023/05/12 00:03:47;;;;;;;24.13;21.55;;;;;;;;;;505630;28;1541;-72
2023/05/12 00:04:13;;;;;;;23.48;21.00;;;;;;;;;;505241;28;1295;-72
2023/05/12 00:04:43;;;;;;;20.20;18.20;;;;;;;;;;504953;28;1434;-72
2023/05/12 00:05:18;;;;;;;20.75;18.70;;;;;;;;;;503503;28;1445;-72
2023/05/12 00:05:34;;;;;;;22.90;20.60;;;;;;;;;;504464;28;1335;-73
2023/05/12 00:05:49;;;;;;;21.85;19.65;;;;;;;;;;505221;28;1389;-72
2023/05/12 00:06:05;;;;;;;20.43;18.43;;;;;;;;;;503489;28;893;-74
2023/05/12 00:06:20;;;;;;;22.05;19.85;;;;;;;;;;503978;28;1326;-73
2023/05/12 00:06:36;;;;;;;22.30;20.10;;;;;;;;;;503391;28;1237;-72
2023/05/12 00:06:51;;;;;;;20.67;18.65;;;;;;;;;;501973;28;1303;-72
2023/05/12 00:07:09;;;;;;;19.50;17.60;;;;;;;;;;501103;29;1206;-72
2023/05/12 00:07:24;;;;;;;19.98;17.98;;;;;;;;;;498983;29;1391;-72
2023/05/12 00:07:40;;;;;;;20.50;18.50;;;;;;;;;;499266;29;937;-73
2023/05/12 00:07:55;;;;;;;20.90;18.80;;;;;;;;;;503173;28;1094;-72
2023/05/12 00:08:13;;;;;;;20.67;18.57;;;;;;;;;;501111;28;1286;-73
2023/05/12 00:08:29;;;;;;;21.73;19.52;;;;;;;;;;502546;28;1467;-72
2023/05/12 00:08:45;;;;;;;22.67;20.25;;;;;;;;;;501582;28;1102;-72
2023/05/12 00:09:00;;;;;;;23.13;20.38;;;;;;;;;;503820;28;1107;-72
2023/05/12 00:09:15;;;;;;;22.63;20.23;;;;;;;;;;504866;28;1273;-73
2023/05/12 00:09:33;;;;;;;22.77;20.37;;;;;;;;;;506150;28;1241;-73
2023/05/12 00:09:58;;;;;;;22.58;20.25;;;;;;;;;;505056;28;1397;-73
2023/05/12 00:10:13;;;;;;;22.98;20.60;;;;;;;;;;506902;28;1347;-72
2023/05/12 00:10:29;;;;;;;22.20;19.90;;;;;;;;;;501375;28;1463;-72
2023/05/12 00:10:44;;;;;;;22.20;19.90;;;;;;;;;;504075;28;1253;-72
2023/05/12 00:11:09;;;;;;;23.13;20.73;;;;;;;;;;506800;28;1020;-73
2023/05/12 00:11:24;;;;;;;23.45;21.02;;;;;;;;;;504982;28;1271;-73
2023/05/12 00:11:39;;;;;;;23.03;20.63;;;;;;;;;;506178;28;1322;-72
2023/05/12 00:11:57;;;;;;;21.42;19.20;;;;;;;;;;507205;28;1303;-72
2023/05/12 00:12:13;;;;;;;19.98;17.98;;;;;;;;;;507211;28;1958;-72
2023/05/12 00:12:28;;;;;;;19.65;17.70;;;;;;;;;;507344;28;1435;-72
2023/05/12 00:12:44;;;;;;;19.50;17.60;;;;;;;;;;506185;28;1353;-72
2023/05/12 00:13:00;;;;;;;19.53;17.60;;;;;;;;;;506126;28;1800;-72
2023/05/12 00:13:22;;;;;;;20.20;18.20;;;;;;;;;;508332;28;1277;-73
2023/05/12 00:13:43;;;;;;;20.92;18.80;;;;;;;;;;505465;28;1646;-71
2023/05/12 00:13:58;;;;;;;21.10;18.92;;;;;;;;;;505728;28;1522;-72
2023/05/12 00:14:14;;;;;;;22.15;19.85;;;;;;;;;;503793;28;916;-72
2023/05/12 00:14:30;;;;;;;21.90;19.60;;;;;;;;;;506951;28;1291;-72
2023/05/12 00:14:45;;;;;;;21.85;19.45;;;;;;;;;;506278;28;1010;-73
2023/05/12 00:15:03;;;;;;;20.83;18.63;;;;;;;;;;505615;28;1423;-72
2023/05/12 00:15:20;;;;;;;20.33;18.33;;;;;;;;;;507427;28;903;-72
2023/05/12 00:15:38;;;;;;;21.73;19.52;;;;;;;;;;506774;28;1255;-72
2023/05/12 00:15:57;;;;;;;22.13;19.92;;;;;;;;;;507892;28;1094;-72
2023/05/12 00:16:22;;;;;;;21.83;19.55;;;;;;;;;;506332;28;1395;-73
2023/05/12 00:16:37;;;;;;;22.35;19.98;;;;;;;;;;506786;28;1233;-73
2023/05/12 00:16:56;;;;;;;22.73;20.43;;;;;;;;;;504755;28;1256;-71
2023/05/12 00:17:12;;;;;;;22.17;19.98;;;;;;;;;;503014;28;1413;-72
2023/05/12 00:17:31;;;;;;;22.45;19.98;;;;;;;;;;501229;29;1475;-73
2023/05/12 00:17:46;;;;;;;22.58;20.17;;;;;;;;;;500997;29;1031;-72
2023/05/12 00:18:02;;;;;;;22.97;20.67;;;;;;;;;;501331;28;1395;-72
2023/05/12 00:18:17;;;;;;;21.98;19.70;;;;;;;;;;510610;28;1202;-73
2023/05/12 00:18:53;;;;;;;20.77;18.67;;;;;;;;;;509362;28;1169;-73
2023/05/12 00:19:08;;;;;;;20.20;18.20;;;;;;;;;;505468;28;1378;-72
2023/05/12 00:19:24;;;;;;;19.60;17.60;;;;;;;;;;507131;28;1451;-71
2023/05/12 00:19:42;;;;;;;20.50;18.40;;;;;;;;;;506808;28;1477;-72
2023/05/12 00:20:00;;;;;;;21.45;19.25;;;;;;;;;;505577;28;1186;-73
2023/05/12 00:20:18;;;;;;;21.10;18.90;;;;;;;;;;510534;28;1123;-72
2023/05/12 00:20:34;;;;;;;19.65;17.70;;;;;;;;;;511114;28;1049;-72
2023/05/12 00:20:49;;;;;;;18.70;16.90;;;;;;;;;;513880;28;1281;-73
2023/05/12 00:21:07;;;;;;;19.17;17.27;;;;;;;;;;510921;28;1204;-72
2023/05/12 00:21:22;;;;;;;19.30;17.33;;;;;;;;;;510386;28;1185;-73
2023/05/12 00:21:42;;;;;;;18.63;16.83;;;;;;;;;;507656;28;1286;-72
2023/05/12 00:21:57;;;;;;;19.00;17.08;;;;;;;;;;508765;28;1478;-72
2023/05/12 00:22:13;;;;;;;19.67;17.67;;;;;;;;;;508458;28;984;-72
2023/05/12 00:22:28;;;;;;;20.48;18.27;;;;;;;;;;509898;28;1332;-73
2023/05/12 00:22:43;;;;;;;20.40;18.23;;;;;;;;;;510527;28;1386;-72
2023/05/12 00:22:59;;;;;;;20.42;18.30;;;;;;;;;;509829;28;1247;-72
2023/05/12 00:23:14;;;;;;;20.47;18.33;;;;;;;;;;509109;28;1027;-73
2023/05/12 00:23:30;;;;;;;20.75;18.65;;;;;;;;;;510764;28;915;-72
2023/05/12 00:23:48;;;;;;;21.50;19.30;;;;;;;;;;511854;28;1455;-72
2023/05/12 00:24:03;;;;;;;21.50;19.17;;;;;;;;;;512169;28;1289;-73
2023/05/12 00:24:19;;;;;;;21.85;18.73;;;;;;;;;;512967;28;1152;-72
2023/05/12 00:24:34;;;;;;;19.80;17.80;;;;;;;;;;512812;28;1198;-72
2023/05/12 00:24:53;;;;;;;20.20;18.10;;;;;;;;;;513337;28;1259;-72
2023/05/12 00:25:08;;;;;;;21.52;19.15;;;;;;;;;;516616;28;978;-71
2023/05/12 00:25:23;;;;;;;21.70;19.37;;;;;;;;;;514164;28;1235;-72
2023/05/12 00:25:39;;;;;;;21.50;19.30;;;;;;;;;;513763;28;1024;-73
2023/05/12 00:25:54;;;;;;;21.67;19.37;;;;;;;;;;513392;28;1152;-72
2023/05/12 00:26:09;;;;;;;22.00;19.70;;;;;;;;;;512613;28;1011;-72
2023/05/12 00:26:35;;;;;;;21.70;19.50;;;;;;;;;;510591;28;1337;-72
2023/05/12 00:26:50;;;;;;;21.33;19.10;;;;;;;;;;514682;28;1053;-72
2023/05/12 00:27:06;;;;;;;19.88;17.90;;;;;;;;;;511868;28;1330;-71
2023/05/12 00:27:21;;;;;;;18.90;17.00;;;;;;;;;;512081;28;1239;-72
2023/05/12 00:27:37;;;;;;;18.15;16.35;;;;;;;;;;513391;28;959;-72
2023/05/12 00:27:52;;;;;;;17.53;15.83;;;;;;;;;;513123;28;1443;-72
2023/05/12 00:28:08;;;;;;;17.73;15.93;;;;;;;;;;513322;28;1147;-72
2023/05/12 00:28:23;;;;;;;18.52;16.73;;;;;;;;;;512455;28;1294;-71
2023/05/12 00:28:38;;;;;;;18.70;16.97;;;;;;;;;;510879;28;1148;-71
2023/05/12 00:28:54;;;;;;;18.20;16.50;;;;;;;;;;512025;28;1469;-71
2023/05/12 00:29:09;;;;;;;17.63;15.93;;;;;;;;;;509519;28;1283;-73
2023/05/12 00:29:27;;;;;;;16.93;15.23;;;;;;;;;;511368;28;1339;-72
2023/05/12 00:29:42;;;;;;;17.08;15.43;;;;;;;;;;509104;28;1196;-72
2023/05/12 00:29:58;;;;;;;17.40;15.70;;;;;;;;;;512019;28;1424;-72
2023/05/12 00:30:14;;;;;;;16.80;15.30;;;;;;;;;;511921;28;1065;-72
2023/05/12 00:30:29;;;;;;;16.42;14.93;;;;;;;;;;507638;28;1372;-71
2023/05/12 00:30:45;;;;;;;16.80;15.20;;;;;;;;;;507693;28;1434;-72
2023/05/12 00:31:03;;;;;;;17.33;15.63;;;;;;;;;;506667;28;1287;-72
2023/05/12 00:31:18;;;;;;;18.38;16.48;;;;;;;;;;506838;28;1302;-72
2023/05/12 00:31:34;;;;;;;18.55;16.73;;;;;;;;;;506542;28;1445;-74
2023/05/12 00:31:49;;;;;;;18.73;16.90;;;;;;;;;;508570;28;990;-72
2023/05/12 00:32:05;;;;;;;18.02;16.33;;;;;;;;;;507747;28;1508;-72
2023/05/12 00:32:21;;;;;;;18.17;16.48;;;;;;;;;;508527;28;1977;-71
2023/05/12 00:33:11;;;;;;;18.98;17.08;;;;;;;;;;511193;28;1018;-72
2023/05/12 00:33:26;;;;;;;19.33;17.33;;;;;;;;;;509970;28;1261;-72
2023/05/12 00:33:41;;;;;;;20.23;18.13;;;;;;;;;;506965;28;1219;-72
2023/05/12 00:33:57;;;;;;;18.87;17.03;;;;;;;;;;508829;28;1400;-73
2023/05/12 00:34:16;;;;;;;17.50;15.83;;;;;;;;;;509808;28;1407;-71
2023/05/12 00:34:31;;;;;;;17.30;15.65;;;;;;;;;;508811;28;967;-72
2023/05/12 00:34:46;;;;;;;17.07;15.47;;;;;;;;;;508370;28;1318;-71
2023/05/12 00:35:02;;;;;;;16.85;15.25;;;;;;;;;;508300;28;1352;-73
2023/05/12 00:35:17;;;;;;;16.60;15.00;;;;;;;;;;509635;28;1229;-72
2023/05/12 00:35:33;;;;;;;17.27;15.60;;;;;;;;;;509875;28;1077;-72
2023/05/12 00:35:48;;;;;;;17.65;15.95;;;;;;;;;;509706;28;1327;-72
2023/05/12 00:36:04;;;;;;;16.60;15.00;;;;;;;;;;507632;28;1230;-73
2023/05/12 00:36:19;;;;;;;15.80;14.20;;;;;;;;;;509977;28;1501;-73
2023/05/12 00:36:35;;;;;;;15.43;13.93;;;;;;;;;;510085;28;987;-72
2023/05/12 00:36:50;;;;;;;16.17;14.67;;;;;;;;;;510924;28;1252;-73
2023/05/12 00:37:06;;;;;;;16.88;15.27;;;;;;;;;;509674;28;1344;-72
2023/05/12 00:38:02;;;;;;;16.80;15.20;;;;;;;;;;510657;28;1294;-73
2023/05/12 00:38:17;;;;;;;16.20;14.65;;;;;;;;;;513898;28;1344;-72
2023/05/12 00:38:33;;;;;;;16.63;15.03;;;;;;;;;;516263;28;1120;-72
2023/05/12 00:38:48;;;;;;;16.58;14.98;;;;;;;;;;513988;28;1495;-72
2023/05/12 00:39:04;;;;;;;15.77;14.27;;;;;;;;;;517284;28;1310;-72
2023/05/12 00:39:20;;;;;;;14.77;13.37;;;;;;;;;;516434;28;1391;-72
2023/05/12 00:39:36;;;;;;;14.43;13.02;;;;;;;;;;516182;28;1280;-73
2023/05/12 00:39:55;;;;;;;14.90;13.50;;;;;;;;;;515767;28;1037;-72
2023/05/12 00:40:10;;;;;;;14.55;13.15;;;;;;;;;;515333;28;1533;-73
2023/05/12 00:40:28;;;;;;;14.38;12.98;;;;;;;;;;516376;28;1100;-72
2023/05/12 00:40:43;;;;;;;14.40;13.00;;;;;;;;;;516424;28;1136;-73
2023/05/12 00:41:00;;;;;;;14.77;13.37;;;;;;;;;;515883;28;1187;-73
2023/05/12 00:41:15;;;;;;;15.38;13.90;;;;;;;;;;515811;28;1324;-72
2023/05/12 00:41:30;;;;;;;14.85;13.45;;;;;;;;;;516986;28;1127;-72
2023/05/12 00:41:47;;;;;;;14.57;13.20;;;;;;;;;;514706;28;1097;-72
2023/05/12 00:42:02;;;;;;;14.85;13.45;;;;;;;;;;516345;28;1364;-72
2023/05/12 00:42:18;;;;;;;15.70;14.20;;;;;;;;;;514933;28;977;-72
2023/05/12 00:42:33;;;;;;;15.37;13.90;;;;;;;;;;513230;28;1178;-73
2023/05/12 00:42:52;;;;;;;14.18;12.88;;;;;;;;;;513015;28;1382;-72
2023/05/12 00:43:07;;;;;;;14.48;13.15;;;;;;;;;;515114;28;1480;-72
2023/05/12 00:43:23;;;;;;;15.97;14.37;;;;;;;;;;514284;28;1278;-72
2023/05/12 00:43:38;;;;;;;16.50;14.80;;;;;;;;;;512395;28;1309;-72
2023/05/12 00:43:54;;;;;;;16.33;14.65;;;;;;;;;;514454;28;1281;-72
2023/05/12 00:44:12;;;;;;;16.40;14.80;;;;;;;;;;512874;28;1501;-72
2023/05/12 00:44:27;;;;;;;16.30;14.70;;;;;;;;;;513845;28;1581;-72
2023/05/12 00:44:43;;;;;;;15.30;13.80;;;;;;;;;;513562;28;1089;-73
2023/05/12 00:44:58;;;;;;;14.60;13.20;;;;;;;;;;514063;28;1273;-72
2023/05/12 00:45:14;;;;;;;15.25;13.82;;;;;;;;;;512999;28;1327;-73
2023/05/12 00:45:29;;;;;;;15.50;14.00;;;;;;;;;;514019;28;1140;-71
2023/05/12 00:45:45;;;;;;;14.90;13.40;;;;;;;;;;515615;28;1305;-72
2023/05/12 00:46:03;;;;;;;15.57;14.07;;;;;;;;;;515746;28;1476;-72
2023/05/12 00:46:18;;;;;;;16.83;15.13;;;;;;;;;;515512;28;1638;-72
2023/05/12 00:46:38;;;;;;;16.67;14.97;;;;;;;;;;514406;28;1423;-72
2023/05/12 00:46:54;;;;;;;16.08;14.52;;;;;;;;;;514366;28;1414;-72
2023/05/12 00:47:09;;;;;;;16.52;14.93;;;;;;;;;;515976;28;1488;-72
2023/05/12 00:47:25;;;;;;;16.42;14.88;;;;;;;;;;510482;28;1342;-71
2023/05/12 00:47:40;;;;;;;16.63;15.13;;;;;;;;;;512327;28;1214;-72
2023/05/12 00:47:56;;;;;;;17.15;15.40;;;;;;;;;;512487;28;1286;-72
2023/05/12 00:48:14;;;;;;;16.97;15.17;;;;;;;;;;513291;28;1336;-72
2023/05/12 00:48:30;;;;;;;16.25;14.65;;;;;;;;;;512250;28;1002;-71
2023/05/12 00:48:45;;;;;;;16.00;14.50;;;;;;;;;;512557;28;1336;-72
2023/05/12 00:49:01;;;;;;;17.03;15.33;;;;;;;;;;511751;28;1406;-72
2023/05/12 00:49:17;;;;;;;17.17;15.48;;;;;;;;;;512100;28;1218;-72
2023/05/12 00:49:32;;;;;;;17.10;15.40;;;;;;;;;;513357;28;1438;-72
2023/05/12 00:49:47;;;;;;;17.60;15.90;;;;;;;;;;513833;28;1323;-73
2023/05/12 00:50:04;;;;;;;17.90;16.10;;;;;;;;;;515246;28;1231;-73
2023/05/12 00:50:19;;;;;;;17.70;16.00;;;;;;;;;;513030;28;1308;-73
2023/05/12 00:50:35;;;;;;;17.57;15.87;;;;;;;;;;513185;28;1030;-71
2023/05/12 00:50:50;;;;;;;17.88;16.10;;;;;;;;;;512151;28;939;-72
2023/05/12 00:51:11;;;;;;;17.70;15.90;;;;;;;;;;516139;28;1013;-72
2023/05/12 00:51:27;;;;;;;17.45;15.75;;;;;;;;;;517208;28;1141;-72
2023/05/12 00:51:42;;;;;;;17.77;15.98;;;;;;;;;;515320;28;1469;-72
2023/05/12 00:51:58;;;;;;;17.80;15.90;;;;;;;;;;517149;28;1150;-72
2023/05/12 00:52:22;;;;;;;18.67;16.67;;;;;;;;;;515795;28;1911;-73
2023/05/12 00:52:38;;;;;;;18.30;16.48;;;;;;;;;;517875;28;1364;-72
2023/05/12 00:53:02;;;;;;;17.88;16.08;;;;;;;;;;517471;28;1116;-71
2023/05/12 00:53:17;;;;;;;17.08;15.38;;;;;;;;;;517887;28;1415;-72
2023/05/12 00:53:33;;;;;;;15.10;13.60;;;;;;;;;;517291;28;1176;-72
2023/05/12 00:53:51;;;;;;;16.23;14.55;;;;;;;;;;517153;28;1384;-72
2023/05/12 00:54:07;;;;;;;17.25;15.48;;;;;;;;;;517461;28;1153;-72
2023/05/12 00:54:43;;;;;;;15.80;14.20;;;;;;;;;;515945;28;1414;-72
2023/05/12 00:55:02;;;;;;;15.43;13.93;;;;;;;;;;513841;28;1376;-72
2023/05/12 00:55:17;;;;;;;14.20;12.85;;;;;;;;;;514692;28;1278;-73
2023/05/12 00:55:53;;;;;;;14.60;13.20;;;;;;;;;;512395;28;1285;-72
2023/05/12 00:56:11;;;;;;;16.42;14.82;;;;;;;;;;510387;28;1605;-73
2023/05/12 00:56:27;;;;;;;16.90;15.27;;;;;;;;;;510629;28;1394;-72
2023/05/12 00:56:43;;;;;;;17.10;15.40;;;;;;;;;;509948;28;1247;-73
2023/05/12 00:56:58;;;;;;;17.05;15.32;;;;;;;;;;511964;28;1350;-72
2023/05/12 00:57:17;;;;;;;17.17;15.40;;;;;;;;;;511727;28;1223;-72
2023/05/12 00:57:32;;;;;;;17.58;15.75;;;;;;;;;;514298;28;1525;-72
2023/05/12 00:57:48;;;;;;;17.83;16.13;;;;;;;;;;514299;28;1291;-72
2023/05/12 00:58:03;;;;;;;17.50;15.80;;;;;;;;;;514628;28;1072;-71
2023/05/12 00:58:24;;;;;;;16.73;15.07;;;;;;;;;;515216;28;1431;-72
2023/05/12 00:58:39;;;;;;;17.17;15.48;;;;;;;;;;516165;28;1332;-72
2023/05/12 00:58:55;;;;;;;18.00;16.23;;;;;;;;;;516069;28;945;-72
2023/05/12 00:59:10;;;;;;;17.75;15.98;;;;;;;;;;514627;28;1372;-73
2023/05/12 00:59:28;;;;;;;16.80;15.20;;;;;;;;;;515259;28;1183;-72
2023/05/12 00:59:44;;;;;;;16.38;14.88;;;;;;;;;;516060;28;1460;-72
2023/05/12 00:59:59;;;;;;;17.50;15.70;;;;;;;;;;515192;28;1424;-71
2023/05/12 01:00:14;;;;;;;17.65;15.85;;;;;;;;;;511390;28;1446;-72
2023/05/12 01:00:30;;;;;;;17.10;15.40;;;;;;;;;;511777;28;974;-72
2023/05/12 01:00:48;;;;;;;17.30;15.60;;;;;;;;;;512232;28;1326;-71
2023/05/12 01:01:03;;;;;;;17.98;16.17;;;;;;;;;;511373;28;1335;-73
2023/05/12 01:01:19;;;;;;;18.50;16.60;;;;;;;;;;510521;28;1252;-72
2023/05/12 01:01:34;;;;;;;18.17;16.35;;;;;;;;;;511992;28;1316;-72
2023/05/12 01:01:50;;;;;;;18.30;16.40;;;;;;;;;;515009;28;1428;-72
2023/05/12 01:02:06;;;;;;;18.20;16.40;;;;;;;;;;515331;28;1243;-72
2023/05/12 01:02:21;;;;;;;17.20;15.60;;;;;;;;;;514830;28;1305;-72
2023/05/12 01:02:37;;;;;;;16.77;15.17;;;;;;;;;;512820;28;1528;-73
2023/05/12 01:02:56;;;;;;;18.50;16.70;;;;;;;;;;513183;28;1314;-72
2023/05/12 01:03:12;;;;;;;17.77;16.08;;;;;;;;;;513265;28;1160;-72
2023/05/12 01:03:28;;;;;;;16.90;15.30;;;;;;;;;;511752;28;1223;-74
2023/05/12 01:03:44;;;;;;;15.82;14.40;;;;;;;;;;512968;28;1192;-72
2023/05/12 01:04:00;;;;;;;15.30;13.93;;;;;;;;;;512412;28;1346;-72
2023/05/12 01:04:15;;;;;;;17.05;15.45;;;;;;;;;;512713;28;1268;-72
2023/05/12 01:04:31;;;;;;;18.70;16.90;;;;;;;;;;514848;28;1274;-73
2023/05/12 01:04:47;;;;;;;18.63;16.83;;;;;;;;;;514703;28;1586;-73
2023/05/12 01:05:03;;;;;;;18.70;16.85;;;;;;;;;;515199;28;1556;-72
2023/05/12 01:05:21;;;;;;;18.88;17.02;;;;;;;;;;515163;28;1389;-72
2023/05/12 01:05:45;;;;;;;18.58;16.80;;;;;;;;;;513635;28;1255;-73
2023/05/12 01:06:29;;;;;;;19.42;17.50;;;;;;;;;;514093;28;1393;-72
2023/05/12 01:07:08;;;;;;;19.20;17.30;;;;;;;;;;513130;28;1373;-72
2023/05/12 01:07:25;;;;;;;17.90;16.20;;;;;;;;;;505154;28;1452;-72
2023/05/12 01:07:41;;;;;;;17.45;15.75;;;;;;;;;;513243;28;1338;-72
2023/05/12 01:07:58;;;;;;;17.10;15.43;;;;;;;;;;512814;28;1389;-71
2023/05/12 01:08:15;;;;;;;17.83;16.05;;;;;;;;;;510709;28;1377;-72
2023/05/12 01:08:31;;;;;;;18.35;16.55;;;;;;;;;;511279;28;1533;-71
2023/05/12 01:08:47;;;;;;;18.13;16.42;;;;;;;;;;513339;28;992;-71
2023/05/12 01:09:02;;;;;;;18.38;16.58;;;;;;;;;;513377;28;1385;-72
2023/05/12 01:09:20;;;;;;;18.38;16.58;;;;;;;;;;515637;28;1426;-72
2023/05/12 01:09:36;;;;;;;17.73;16.13;;;;;;;;;;515362;28;1329;-73
2023/05/12 01:09:55;;;;;;;17.60;15.90;;;;;;;;;;515865;28;1163;-72
2023/05/12 01:10:19;;;;;;;16.15;14.60;;;;;;;;;;516603;28;1506;-71
2023/05/12 01:10:35;;;;;;;16.00;14.50;;;;;;;;;;513493;28;1327;-71
2023/05/12 01:10:51;;;;;;;17.73;16.03;;;;;;;;;;513199;28;1293;-72
2023/05/12 01:11:06;;;;;;;19.10;17.10;;;;;;;;;;513462;28;1327;-72
2023/05/12 01:11:22;;;;;;;18.03;16.23;;;;;;;;;;513118;28;1363;-71
2023/05/12 01:11:37;;;;;;;16.73;15.23;;;;;;;;;;512766;28;1471;-72
2023/05/12 01:11:55;;;;;;;16.43;14.93;;;;;;;;;;514648;28;1325;-72
2023/05/12 01:12:10;;;;;;;17.15;15.45;;;;;;;;;;514442;28;1680;-73
2023/05/12 01:12:26;;;;;;;18.17;16.30;;;;;;;;;;514343;28;1984;-72
2023/05/12 01:12:42;;;;;;;17.95;16.15;;;;;;;;;;513538;28;1116;-71
2023/05/12 01:12:57;;;;;;;18.27;16.48;;;;;;;;;;515032;28;1304;-72
2023/05/12 01:13:13;;;;;;;18.50;16.70;;;;;;;;;;513157;28;1287;-71
2023/05/12 01:13:28;;;;;;;19.10;17.30;;;;;;;;;;510939;28;1018;-72
2023/05/12 01:13:44;;;;;;;20.23;18.27;;;;;;;;;;512635;28;1247;-72
2023/05/12 01:13:59;;;;;;;19.92;17.92;;;;;;;;;;513048;28;1270;-72
2023/05/12 01:14:15;;;;;;;19.37;17.47;;;;;;;;;;515050;28;1190;-72
2023/05/12 01:14:30;;;;;;;18.88;17.02;;;;;;;;;;515687;28;1164;-71
2023/05/12 01:14:46;;;;;;;18.30;16.50;;;;;;;;;;513088;28;1379;-72
2023/05/12 01:15:01;;;;;;;18.90;16.95;;;;;;;;;;513791;28;1415;-71
2023/05/12 01:15:37;;;;;;;19.43;17.43;;;;;;;;;;514495;28;1248;-72
2023/05/12 01:15:55;;;;;;;18.75;16.85;;;;;;;;;;513285;28;1482;-72
2023/05/12 01:16:12;;;;;;;18.95;17.05;;;;;;;;;;512601;28;958;-72
2023/05/12 01:16:29;;;;;;;17.60;15.90;;;;;;;;;;513797;28;1453;-71
2023/05/12 01:16:51;;;;;;;15.77;14.23;;;;;;;;;;512681;28;1003;-72
2023/05/12 01:17:09;;;;;;;16.10;14.50;;;;;;;;;;515575;28;1880;-72
2023/05/12 01:17:34;;;;;;;16.25;14.65;;;;;;;;;;513587;28;1409;-72
2023/05/12 01:17:53;;;;;;;18.15;16.35;;;;;;;;;;514771;28;951;-73
2023/05/12 01:18:09;;;;;;;17.70;15.98;;;;;;;;;;514967;28;1260;-72
2023/05/12 01:18:26;;;;;;;16.23;14.70;;;;;;;;;;516521;28;1250;-72
2023/05/12 01:18:48;;;;;;;15.90;14.30;;;;;;;;;;516858;28;1176;-72
2023/05/12 01:19:05;;;;;;;15.80;14.30;;;;;;;;;;517191;28;1088;-73
2023/05/12 01:19:40;;;;;;;16.88;15.30;;;;;;;;;;515966;28;1490;-74
2023/05/12 01:19:58;;;;;;;17.40;15.70;;;;;;;;;;515228;28;1064;-72
2023/05/12 01:20:15;;;;;;;18.17;16.38;;;;;;;;;;515535;28;1660;-72
2023/05/12 01:20:31;;;;;;;18.65;16.75;;;;;;;;;;517219;28;1005;-73
2023/05/12 01:20:47;;;;;;;18.80;16.90;;;;;;;;;;517472;28;1252;-72
2023/05/12 01:21:02;;;;;;;18.38;16.48;;;;;;;;;;517788;28;1296;-72
2023/05/12 01:21:18;;;;;;;17.30;15.60;;;;;;;;;;514883;28;1426;-72
2023/05/12 01:21:33;;;;;;;16.90;15.30;;;;;;;;;;515417;28;1474;-72
2023/05/12 01:21:49;;;;;;;16.73;15.13;;;;;;;;;;515350;28;1282;-72
2023/05/12 01:22:07;;;;;;;16.40;14.80;;;;;;;;;;515162;28;986;-72
2023/05/12 01:22:43;;;;;;;15.63;14.13;;;;;;;;;;515268;28;1349;-72
2023/05/12 01:22:58;;;;;;;17.10;15.40;;;;;;;;;;514312;28;1321;-71
2023/05/12 01:23:16;;;;;;;17.08;15.40;;;;;;;;;;513289;28;1278;-71
2023/05/12 01:23:38;;;;;;;16.70;15.10;;;;;;;;;;514217;28;974;-72
2023/05/12 01:23:57;;;;;;;17.55;15.85;;;;;;;;;;514821;28;2032;-72
2023/05/12 01:24:16;;;;;;;18.67;16.85;;;;;;;;;;515554;28;1598;-72
2023/05/12 01:24:32;;;;;;;19.08;17.15;;;;;;;;;;516255;28;1527;-71
2023/05/12 01:24:52;;;;;;;18.92;16.92;;;;;;;;;;515667;28;1281;-72
2023/05/12 01:25:10;;;;;;;17.98;16.23;;;;;;;;;;516028;28;1273;-72
2023/05/12 01:25:27;;;;;;;18.30;16.50;;;;;;;;;;514644;28;1351;-72
2023/05/12 01:25:43;;;;;;;19.10;17.20;;;;;;;;;;513132;28;1519;-71
2023/05/12 01:26:02;;;;;;;18.98;17.08;;;;;;;;;;513013;28;1300;-71
2023/05/12 01:26:38;;;;;;;19.48;17.30;;;;;;;;;;512833;28;1408;-72
2023/05/12 01:26:54;;;;;;;19.77;17.67;;;;;;;;;;515184;28;1242;-71
2023/05/12 01:27:09;;;;;;;19.92;17.85;;;;;;;;;;517041;28;1417;-71
2023/05/12 01:27:28;;;;;;;20.00;17.93;;;;;;;;;;517440;28;1140;-72
2023/05/12 01:27:44;;;;;;;19.70;17.80;;;;;;;;;;517215;28;1306;-72
2023/05/12 01:28:00;;;;;;;18.90;17.05;;;;;;;;;;516937;28;1368;-72
2023/05/12 01:28:16;;;;;;;18.75;16.92;;;;;;;;;;516169;28;1416;-72
2023/05/12 01:28:32;;;;;;;19.98;17.98;;;;;;;;;;516620;28;1293;-72
2023/05/12 01:28:48;;;;;;;19.92;17.92;;;;;;;;;;516611;28;1163;-72
2023/05/12 01:29:03;;;;;;;18.75;16.85;;;;;;;;;;517143;28;1374;-72
2023/05/12 01:29:20;;;;;;;19.35;17.35;;;;;;;;;;517375;28;977;-73
2023/05/12 01:29:35;;;;;;;19.20;17.30;;;;;;;;;;517844;28;1096;-72
2023/05/12 01:29:51;;;;;;;18.60;16.80;;;;;;;;;;516638;28;1282;-71
2023/05/12 01:30:07;;;;;;;19.07;17.17;;;;;;;;;;515712;28;1484;-72
2023/05/12 01:30:23;;;;;;;20.23;18.23;;;;;;;;;;515713;28;1386;-72
2023/05/12 01:30:42;;;;;;;20.83;18.67;;;;;;;;;;516339;28;1302;-71
2023/05/12 01:30:58;;;;;;;20.45;18.35;;;;;;;;;;513323;28;1359;-73
2023/05/12 01:31:13;;;;;;;19.27;17.38;;;;;;;;;;513821;28;1097;-72
2023/05/12 01:31:28;;;;;;;18.83;16.98;;;;;;;;;;513595;28;1357;-72
2023/05/12 01:31:44;;;;;;;18.57;16.77;;;;;;;;;;513732;28;1371;-72
2023/05/12 01:32:00;;;;;;;19.08;17.17;;;;;;;;;;514943;28;1101;-73
2023/05/12 01:32:16;;;;;;;20.10;18.00;;;;;;;;;;512146;28;1969;-72
2023/05/12 01:32:31;;;;;;;19.17;17.23;;;;;;;;;;515168;28;902;-72
2023/05/12 01:32:46;;;;;;;16.53;15.03;;;;;;;;;;516641;28;1136;-72
2023/05/12 01:33:02;;;;;;;16.60;15.00;;;;;;;;;;515908;28;1369;-72
2023/05/12 01:33:17;;;;;;;16.73;15.03;;;;;;;;;;515332;28;1267;-72
2023/05/12 01:33:33;;;;;;;16.48;14.88;;;;;;;;;;514610;28;1270;-72
2023/05/12 01:33:48;;;;;;;16.60;15.05;;;;;;;;;;514881;28;1195;-72
2023/05/12 01:34:04;;;;;;;15.87;14.40;;;;;;;;;;514764;28;1174;-72
2023/05/12 01:34:19;;;;;;;15.73;14.23;;;;;;;;;;516153;28;1109;-72
2023/05/12 01:34:35;;;;;;;16.80;15.13;;;;;;;;;;516568;28;1164;-72
2023/05/12 01:34:50;;;;;;;18.25;16.35;;;;;;;;;;515376;28;1356;-72
2023/05/12 01:35:06;;;;;;;18.70;16.80;;;;;;;;;;515321;28;1525;-72
2023/05/12 01:35:22;;;;;;;18.23;16.42;;;;;;;;;;514614;28;955;-72
2023/05/12 01:35:37;;;;;;;17.63;15.87;;;;;;;;;;515092;28;1009;-72
2023/05/12 01:35:53;;;;;;;17.50;15.80;;;;;;;;;;515282;28;1290;-72
2023/05/12 01:36:08;;;;;;;17.50;15.80;;;;;;;;;;515824;28;1444;-72
2023/05/12 01:36:24;;;;;;;17.52;15.82;;;;;;;;;;514161;28;1521;-72
2023/05/12 01:36:39;;;;;;;17.60;15.87;;;;;;;;;;513245;28;1197;-72
2023/05/12 01:36:55;;;;;;;17.60;15.90;;;;;;;;;;515369;28;1250;-72
2023/05/12 01:37:11;;;;;;;18.47;16.63;;;;;;;;;;516528;28;1111;-72
2023/05/12 01:37:28;;;;;;;18.77;16.88;;;;;;;;;;515778;28;1274;-72
2023/05/12 01:37:45;;;;;;;17.13;15.45;;;;;;;;;;513043;28;1385;-71
2023/05/12 01:38:00;;;;;;;15.82;14.35;;;;;;;;;;515948;28;1507;-72
2023/05/12 01:38:16;;;;;;;15.15;13.75;;;;;;;;;;515593;28;1377;-72
2023/05/12 01:38:31;;;;;;;15.50;14.10;;;;;;;;;;515476;28;1441;-72
2023/05/12 01:38:49;;;;;;;16.33;14.82;;;;;;;;;;513928;28;1389;-71
2023/05/12 01:39:04;;;;;;;16.23;14.68;;;;;;;;;;513825;28;1260;-72
2023/05/12 01:39:20;;;;;;;16.15;14.55;;;;;;;;;;513479;28;1149;-72
2023/05/12 01:39:36;;;;;;;16.50;14.90;;;;;;;;;;512543;28;1132;-72
2023/05/12 01:39:52;;;;;;;16.70;15.07;;;;;;;;;;513722;28;1527;-72
2023/05/12 01:40:08;;;;;;;17.27;15.57;;;;;;;;;;516220;28;1051;-72
2023/05/12 01:40:23;;;;;;;18.00;16.20;;;;;;;;;;517677;28;1447;-72
2023/05/12 01:40:38;;;;;;;16.60;15.00;;;;;;;;;;518157;28;1114;-72
2023/05/12 01:40:54;;;;;;;15.43;13.98;;;;;;;;;;516413;28;1442;-72
2023/05/12 01:41:09;;;;;;;15.27;13.87;;;;;;;;;;514487;28;1164;-73
2023/05/12 01:41:25;;;;;;;15.45;14.05;;;;;;;;;;515911;28;1427;-73
2023/05/12 01:41:40;;;;;;;16.10;14.60;;;;;;;;;;515716;28;1267;-72
2023/05/12 01:41:56;;;;;;;16.13;14.63;;;;;;;;;;514534;28;1281;-72
2023/05/12 01:42:11;;;;;;;16.03;14.53;;;;;;;;;;512209;28;1404;-73
2023/05/12 01:42:28;;;;;;;16.27;14.77;;;;;;;;;;515122;28;1259;-72
2023/05/12 01:42:47;;;;;;;16.30;14.80;;;;;;;;;;514346;28;1448;-72
2023/05/12 01:43:02;;;;;;;15.82;14.38;;;;;;;;;;514716;28;1180;-72
2023/05/12 01:43:18;;;;;;;15.73;14.32;;;;;;;;;;514371;28;974;-72
2023/05/12 01:43:33;;;;;;;15.13;13.73;;;;;;;;;;514797;28;1122;-72
2023/05/12 01:43:48;;;;;;;14.97;13.57;;;;;;;;;;517389;28;1010;-72
2023/05/12 01:44:13;;;;;;;15.73;14.23;;;;;;;;;;515578;28;1290;-72
2023/05/12 01:44:28;;;;;;;16.88;15.27;;;;;;;;;;514867;28;1104;-72
2023/05/12 01:44:43;;;;;;;18.30;16.50;;;;;;;;;;516203;28;1242;-72
2023/05/12 01:44:59;;;;;;;19.67;17.67;;;;;;;;;;516439;28;1360;-72